Decatur, Mississippi
Current Conditions -  °F | °C
As of 4:22 AM on Wednesday 22 Oct 2014 (Local Time) from KMEI Reporting Station
Haze Haze  
Wind Chill: 44°   Ceiling: Unl
Heat Index: 47°   Visibility: 4mi
Dew Point: 46°   Wind: 6mph
Humidity: 97%   Direction: 360°N
Pressure: 30.08"   Gusts: NA
Location:  32.44°N, 89.11°W
Report Text: KMEI 220922Z AUTO 36005KT 4SM BR SCT002 08/08 A3008 RMK AO2 T00830078
Loading
Personal Weather Stations






























Interactive Weather Map
Tropical Storm Tracking
New forecast layout! Learn more

10-Day Weather Forecast

Advertisements
Track Severe Weather on mobile